sensor_id;sensor_type;location;lat;lon;timestamp;temperature;humidity
27224;DHT22;14965;50.660;13.226;2023-02-05T00:01:36;-1.60;99.90
27224;DHT22;14965;50.660;13.226;2023-02-05T00:04:02;-1.60;99.90
27224;DHT22;14965;50.660;13.226;2023-02-05T00:06:28;-1.60;99.90
27224;DHT22;14965;50.660;13.226;2023-02-05T00:08:55;-1.60;99.90
27224;DHT22;14965;50.660;13.226;2023-02-05T00:11:22;-1.60;99.90
27224;DHT22;14965;50.660;13.226;2023-02-05T00:13:48;-1.60;99.90
27224;DHT22;14965;50.660;13.226;2023-02-05T00:16:17;-1.70;99.90
27224;DHT22;14965;50.660;13.226;2023-02-05T00:18:45;-1.80;99.90
27224;DHT22;14965;50.660;13.226;2023-02-05T00:21:12;-1.80;99.90
27224;DHT22;14965;50.660;13.226;2023-02-05T00:23:39;-1.90;99.90
27224;DHT22;14965;50.660;13.226;2023-02-05T00:26:06;-1.90;99.90
27224;DHT22;14965;50.660;13.226;2023-02-05T00:28:33;-1.90;99.90
27224;DHT22;14965;50.660;13.226;2023-02-05T00:31:00;-2.00;99.90
27224;DHT22;14965;50.660;13.226;2023-02-05T00:33:32;-1.90;99.90
27224;DHT22;14965;50.660;13.226;2023-02-05T00:35:58;-1.90;99.90
27224;DHT22;14965;50.660;13.226;2023-02-05T00:38:24;-1.90;99.90
27224;DHT22;14965;50.660;13.226;2023-02-05T00:40:49;-1.90;99.90
27224;DHT22;14965;50.660;13.226;2023-02-05T00:43:15;-1.90;99.90
27224;DHT22;14965;50.660;13.226;2023-02-05T00:45:41;-2.00;99.90
27224;DHT22;14965;50.660;13.226;2023-02-05T00:48:07;-2.00;99.90
27224;DHT22;14965;50.660;13.226;2023-02-05T00:50:35;-2.00;99.90
27224;DHT22;14965;50.660;13.226;2023-02-05T00:53:01;-2.00;99.90
27224;DHT22;14965;50.660;13.226;2023-02-05T00:55:27;-2.00;99.90
27224;DHT22;14965;50.660;13.226;2023-02-05T00:57:53;-2.00;99.90
27224;DHT22;14965;50.660;13.226;2023-02-05T01:00:19;-2.10;99.90
27224;DHT22;14965;50.660;13.226;2023-02-05T01:02:45;-2.00;99.90
27224;DHT22;14965;50.660;13.226;2023-02-05T01:05:11;-2.00;99.90
27224;DHT22;14965;50.660;13.226;2023-02-05T01:07:39;-2.00;99.90
27224;DHT22;14965;50.660;13.226;2023-02-05T01:10:06;-2.00;99.90
27224;DHT22;14965;50.660;13.226;2023-02-05T01:12:32;-2.00;99.90
27224;DHT22;14965;50.660;13.226;2023-02-05T01:14:58;-2.10;99.90
27224;DHT22;14965;50.660;13.226;2023-02-05T01:17:25;-2.10;99.90
27224;DHT22;14965;50.660;13.226;2023-02-05T01:19:51;-2.10;99.90
27224;DHT22;14965;50.660;13.226;2023-02-05T01:22:17;-2.20;99.90
27224;DHT22;14965;50.660;13.226;2023-02-05T01:24:44;-2.20;99.90
27224;DHT22;14965;50.660;13.226;2023-02-05T01:27:10;-2.20;99.90
27224;DHT22;14965;50.660;13.226;2023-02-05T01:29:35;-2.30;99.90
27224;DHT22;14965;50.660;13.226;2023-02-05T01:32:01;-2.40;99.90
27224;DHT22;14965;50.660;13.226;2023-02-05T01:34:27;-2.40;99.90
27224;DHT22;14965;50.660;13.226;2023-02-05T01:36:53;-2.40;99.90
27224;DHT22;14965;50.660;13.226;2023-02-05T01:39:19;-2.50;99.90
27224;DHT22;14965;50.660;13.226;2023-02-05T01:41:46;-2.60;99.90
27224;DHT22;14965;50.660;13.226;2023-02-05T01:44:14;-2.70;99.90
27224;DHT22;14965;50.660;13.226;2023-02-05T01:46:42;-2.80;99.90
27224;DHT22;14965;50.660;13.226;2023-02-05T01:49:13;-2.80;99.90
27224;DHT22;14965;50.660;13.226;2023-02-05T01:51:43;-2.90;99.90
27224;DHT22;14965;50.660;13.226;2023-02-05T01:54:12;-3.00;99.90
27224;DHT22;14965;50.660;13.226;2023-02-05T01:56:41;-3.00;99.90
27224;DHT22;14965;50.660;13.226;2023-02-05T01:59:15;-3.10;99.90
27224;DHT22;14965;50.660;13.226;2023-02-05T02:01:43;-3.20;99.90
27224;DHT22;14965;50.660;13.226;2023-02-05T02:04:11;-3.20;99.90
27224;DHT22;14965;50.660;13.226;2023-02-05T02:06:40;-3.20;99.90
27224;DHT22;14965;50.660;13.226;2023-02-05T02:09:06;-3.30;99.90
27224;DHT22;14965;50.660;13.226;2023-02-05T02:11:37;-3.40;99.90
27224;DHT22;14965;50.660;13.226;2023-02-05T02:14:07;-3.40;99.90
27224;DHT22;14965;50.660;13.226;2023-02-05T02:16:37;-3.40;99.90
27224;DHT22;14965;50.660;13.226;2023-02-05T02:19:09;-3.40;99.90
27224;DHT22;14965;50.660;13.226;2023-02-05T02:28:03;-3.80;99.90
27224;DHT22;14965;50.660;13.226;2023-02-05T02:30:39;-3.90;99.90
27224;DHT22;14965;50.660;13.226;2023-02-05T02:33:14;-3.90;99.90
27224;DHT22;14965;50.660;13.226;2023-02-05T02:35:46;-4.00;99.90
27224;DHT22;14965;50.660;13.226;2023-02-05T02:38:27;-4.00;99.90
27224;DHT22;14965;50.660;13.226;2023-02-05T02:41:02;-4.10;99.90
27224;DHT22;14965;50.660;13.226;2023-02-05T02:43:38;-4.20;99.90
27224;DHT22;14965;50.660;13.226;2023-02-05T02:46:17;-4.20;99.90
27224;DHT22;14965;50.660;13.226;2023-02-05T02:48:47;-4.30;99.90
27224;DHT22;14965;50.660;13.226;2023-02-05T02:51:17;-4.30;99.90
27224;DHT22;14965;50.660;13.226;2023-02-05T02:53:47;-4.30;99.90
27224;DHT22;14965;50.660;13.226;2023-02-05T02:56:17;-4.40;99.90
27224;DHT22;14965;50.660;13.226;2023-02-05T02:58:48;-4.40;99.90
27224;DHT22;14965;50.660;13.226;2023-02-05T03:01:19;-4.50;99.90
27224;DHT22;14965;50.660;13.226;2023-02-05T03:03:52;-4.70;99.90
27224;DHT22;14965;50.660;13.226;2023-02-05T03:06:23;-4.70;99.90
27224;DHT22;14965;50.660;13.226;2023-02-05T03:08:53;-4.70;99.90
27224;DHT22;14965;50.660;13.226;2023-02-05T03:11:23;-4.80;99.90
27224;DHT22;14965;50.660;13.226;2023-02-05T03:13:51;-4.90;99.90
27224;DHT22;14965;50.660;13.226;2023-02-05T03:16:19;-5.10;99.90
27224;DHT22;14965;50.660;13.226;2023-02-05T03:18:45;-5.20;99.90
27224;DHT22;14965;50.660;13.226;2023-02-05T03:21:15;-5.20;99.90
27224;DHT22;14965;50.660;13.226;2023-02-05T03:23:43;-5.20;99.90
27224;DHT22;14965;50.660;13.226;2023-02-05T03:26:23;-5.20;99.90
27224;DHT22;14965;50.660;13.226;2023-02-05T03:28:53;-5.30;99.90
27224;DHT22;14965;50.660;13.226;2023-02-05T03:31:24;-5.20;99.90
27224;DHT22;14965;50.660;13.226;2023-02-05T03:34:07;-5.20;99.90
27224;DHT22;14965;50.660;13.226;2023-02-05T03:36:51;-5.30;99.90
27224;DHT22;14965;50.660;13.226;2023-02-05T03:39:31;-5.30;99.90
27224;DHT22;14965;50.660;13.226;2023-02-05T03:42:15;-5.30;99.90
27224;DHT22;14965;50.660;13.226;2023-02-05T03:45:05;-5.30;99.90
27224;DHT22;14965;50.660;13.226;2023-02-05T03:47:53;-5.40;99.90
27224;DHT22;14965;50.660;13.226;2023-02-05T03:50:31;-5.40;99.90
27224;DHT22;14965;50.660;13.226;2023-02-05T03:53:07;-5.40;99.90
27224;DHT22;14965;50.660;13.226;2023-02-05T03:55:43;-5.50;99.90
27224;DHT22;14965;50.660;13.226;2023-02-05T03:58:17;-5.50;99.90
27224;DHT22;14965;50.660;13.226;2023-02-05T04:00:47;-5.50;99.90
27224;DHT22;14965;50.660;13.226;2023-02-05T04:03:14;-5.60;99.90
27224;DHT22;14965;50.660;13.226;2023-02-05T04:05:40;-5.60;99.90
27224;DHT22;14965;50.660;13.226;2023-02-05T04:08:06;-5.60;99.90
27224;DHT22;14965;50.660;13.226;2023-02-05T04:10:32;-5.50;99.90
27224;DHT22;14965;50.660;13.226;2023-02-05T04:12:58;-5.50;99.90
27224;DHT22;14965;50.660;13.226;2023-02-05T04:15:24;-5.50;99.90
27224;DHT22;14965;50.660;13.226;2023-02-05T04:17:52;-5.50;99.90
27224;DHT22;14965;50.660;13.226;2023-02-05T04:20:18;-5.50;99.90
27224;DHT22;14965;50.660;13.226;2023-02-05T04:22:44;-5.50;99.90
27224;DHT22;14965;50.660;13.226;2023-02-05T04:25:09;-5.60;99.90
27224;DHT22;14965;50.660;13.226;2023-02-05T04:27:35;-5.50;99.90
27224;DHT22;14965;50.660;13.226;2023-02-05T04:30:01;-5.50;99.90
27224;DHT22;14965;50.660;13.226;2023-02-05T04:32:28;-5.60;99.90
27224;DHT22;14965;50.660;13.226;2023-02-05T04:34:55;-5.70;99.90
27224;DHT22;14965;50.660;13.226;2023-02-05T04:37:21;-5.70;99.90
27224;DHT22;14965;50.660;13.226;2023-02-05T04:39:47;-5.70;99.90
27224;DHT22;14965;50.660;13.226;2023-02-05T04:42:13;-5.90;99.90
27224;DHT22;14965;50.660;13.226;2023-02-05T04:44:38;-5.90;99.90
27224;DHT22;14965;50.660;13.226;2023-02-05T04:47:04;-5.90;99.90
27224;DHT22;14965;50.660;13.226;2023-02-05T04:49:31;-5.90;99.90
27224;DHT22;14965;50.660;13.226;2023-02-05T04:51:58;-5.90;99.90
27224;DHT22;14965;50.660;13.226;2023-02-05T04:54:24;-5.80;99.90
27224;DHT22;14965;50.660;13.226;2023-02-05T04:56:50;-5.80;99.90
27224;DHT22;14965;50.660;13.226;2023-02-05T04:59:16;-5.80;99.90
27224;DHT22;14965;50.660;13.226;2023-02-05T05:01:41;-5.80;99.90
27224;DHT22;14965;50.660;13.226;2023-02-05T05:04:08;-5.80;99.90
27224;DHT22;14965;50.660;13.226;2023-02-05T05:06:33;-5.80;99.90
27224;DHT22;14965;50.660;13.226;2023-02-05T05:09:01;-5.70;99.90
27224;DHT22;14965;50.660;13.226;2023-02-05T05:11:26;-5.70;99.90
27224;DHT22;14965;50.660;13.226;2023-02-05T05:13:52;-5.70;99.90
27224;DHT22;14965;50.660;13.226;2023-02-05T05:16:18;-5.70;99.90
27224;DHT22;14965;50.660;13.226;2023-02-05T05:18:44;-5.80;99.90
27224;DHT22;14965;50.660;13.226;2023-02-05T05:21:10;-5.90;99.90
27224;DHT22;14965;50.660;13.226;2023-02-05T05:23:37;-5.90;99.90
27224;DHT22;14965;50.660;13.226;2023-02-05T05:26:06;-5.90;99.90
27224;DHT22;14965;50.660;13.226;2023-02-05T05:28:34;-5.90;99.90
27224;DHT22;14965;50.660;13.226;2023-02-05T05:31:05;-5.90;99.90
27224;DHT22;14965;50.660;13.226;2023-02-05T05:33:32;-5.90;99.90
27224;DHT22;14965;50.660;13.226;2023-02-05T05:35:58;-5.90;99.90
27224;DHT22;14965;50.660;13.226;2023-02-05T05:38:24;-5.70;99.90
27224;DHT22;14965;50.660;13.226;2023-02-05T05:40:50;-5.80;99.90
27224;DHT22;14965;50.660;13.226;2023-02-05T05:43:19;-5.80;99.90
27224;DHT22;14965;50.660;13.226;2023-02-05T05:45:45;-5.80;99.90
27224;DHT22;14965;50.660;13.226;2023-02-05T05:48:11;-5.80;99.90
27224;DHT22;14965;50.660;13.226;2023-02-05T05:50:37;-5.70;99.90
27224;DHT22;14965;50.660;13.226;2023-02-05T05:53:03;-5.60;99.90
27224;DHT22;14965;50.660;13.226;2023-02-05T05:55:29;-5.50;99.90
27224;DHT22;14965;50.660;13.226;2023-02-05T05:57:54;-5.50;99.90
27224;DHT22;14965;50.660;13.226;2023-02-05T06:00:21;-5.50;99.90
27224;DHT22;14965;50.660;13.226;2023-02-05T06:02:47;-5.40;99.90
27224;DHT22;14965;50.660;13.226;2023-02-05T06:05:13;-5.40;99.90
27224;DHT22;14965;50.660;13.226;2023-02-05T06:07:39;-5.30;99.90
27224;DHT22;14965;50.660;13.226;2023-02-05T06:10:06;-5.30;99.90
27224;DHT22;14965;50.660;13.226;2023-02-05T06:12:32;-5.20;99.90
27224;DHT22;14965;50.660;13.226;2023-02-05T06:14:58;-5.20;99.90
27224;DHT22;14965;50.660;13.226;2023-02-05T06:17:25;-5.20;99.90
27224;DHT22;14965;50.660;13.226;2023-02-05T06:19:51;-5.10;99.90
27224;DHT22;14965;50.660;13.226;2023-02-05T06:22:16;-5.10;99.90
27224;DHT22;14965;50.660;13.226;2023-02-05T06:24:42;-5.10;99.90
27224;DHT22;14965;50.660;13.226;2023-02-05T06:27:08;-5.10;99.90
27224;DHT22;14965;50.660;13.226;2023-02-05T06:29:34;-5.00;99.90
27224;DHT22;14965;50.660;13.226;2023-02-05T06:32:00;-5.00;99.90
27224;DHT22;14965;50.660;13.226;2023-02-05T06:34:27;-5.00;99.90
27224;DHT22;14965;50.660;13.226;2023-02-05T06:36:53;-5.00;99.90
27224;DHT22;14965;50.660;13.226;2023-02-05T06:39:18;-4.90;99.90
27224;DHT22;14965;50.660;13.226;2023-02-05T06:41:44;-4.90;99.90
27224;DHT22;14965;50.660;13.226;2023-02-05T06:44:10;-4.80;99.90
27224;DHT22;14965;50.660;13.226;2023-02-05T06:46:36;-4.80;99.90
27224;DHT22;14965;50.660;13.226;2023-02-05T06:49:02;-4.60;99.90
27224;DHT22;14965;50.660;13.226;2023-02-05T06:51:29;-4.70;99.90
27224;DHT22;14965;50.660;13.226;2023-02-05T06:53:58;-4.60;99.90
27224;DHT22;14965;50.660;13.226;2023-02-05T06:56:24;-4.60;99.90
27224;DHT22;14965;50.660;13.226;2023-02-05T06:58:57;-4.60;99.90
27224;DHT22;14965;50.660;13.226;2023-02-05T07:01:23;-4.60;99.90
27224;DHT22;14965;50.660;13.226;2023-02-05T07:03:49;-4.50;99.90
27224;DHT22;14965;50.660;13.226;2023-02-05T07:06:15;-4.40;99.90
27224;DHT22;14965;50.660;13.226;2023-02-05T07:08:42;-4.40;99.90
27224;DHT22;14965;50.660;13.226;2023-02-05T07:11:08;-4.20;99.90
27224;DHT22;14965;50.660;13.226;2023-02-05T07:13:34;-4.30;99.90
27224;DHT22;14965;50.660;13.226;2023-02-05T07:16:02;-4.40;99.90
27224;DHT22;14965;50.660;13.226;2023-02-05T07:18:29;-4.30;99.90
27224;DHT22;14965;50.660;13.226;2023-02-05T07:20:57;-4.20;99.90
27224;DHT22;14965;50.660;13.226;2023-02-05T07:23:23;-4.00;99.90
27224;DHT22;14965;50.660;13.226;2023-02-05T07:25:50;-4.00;99.90
27224;DHT22;14965;50.660;13.226;2023-02-05T07:28:16;-3.80;99.90
27224;DHT22;14965;50.660;13.226;2023-02-05T07:30:42;-3.70;99.90
27224;DHT22;14965;50.660;13.226;2023-02-05T07:33:08;-3.60;99.90
27224;DHT22;14965;50.660;13.226;2023-02-05T07:35:36;-3.50;99.90
27224;DHT22;14965;50.660;13.226;2023-02-05T07:38:02;-3.40;99.90
27224;DHT22;14965;50.660;13.226;2023-02-05T07:40:28;-3.30;99.90
27224;DHT22;14965;50.660;13.226;2023-02-05T07:42:55;-3.10;99.90
27224;DHT22;14965;50.660;13.226;2023-02-05T07:45:21;-3.00;99.90
27224;DHT22;14965;50.660;13.226;2023-02-05T07:47:47;-2.90;99.90
27224;DHT22;14965;50.660;13.226;2023-02-05T07:50:13;-2.80;99.90
27224;DHT22;14965;50.660;13.226;2023-02-05T07:52:39;-2.70;99.90
27224;DHT22;14965;50.660;13.226;2023-02-05T07:55:05;-2.70;99.90
27224;DHT22;14965;50.660;13.226;2023-02-05T07:57:31;-2.60;99.90
27224;DHT22;14965;50.660;13.226;2023-02-05T07:59:58;-2.60;99.90
27224;DHT22;14965;50.660;13.226;2023-02-05T08:02:24;-2.60;99.90
27224;DHT22;14965;50.660;13.226;2023-02-05T08:04:50;-2.60;99.90
27224;DHT22;14965;50.660;13.226;2023-02-05T08:07:16;-2.50;99.90
27224;DHT22;14965;50.660;13.226;2023-02-05T08:09:42;-2.50;99.90
27224;DHT22;14965;50.660;13.226;2023-02-05T08:12:08;-2.40;99.90
27224;DHT22;14965;50.660;13.226;2023-02-05T08:14:34;-2.40;99.90
27224;DHT22;14965;50.660;13.226;2023-02-05T08:17:03;-2.30;99.90
27224;DHT22;14965;50.660;13.226;2023-02-05T08:19:29;-2.10;99.90
27224;DHT22;14965;50.660;13.226;2023-02-05T08:21:55;-2.10;99.90
27224;DHT22;14965;50.660;13.226;2023-02-05T08:24:20;-2.00;99.90
27224;DHT22;14965;50.660;13.226;2023-02-05T08:26:46;-1.90;99.90
27224;DHT22;14965;50.660;13.226;2023-02-05T08:29:13;-1.70;99.90
27224;DHT22;14965;50.660;13.226;2023-02-05T08:31:38;-1.60;99.90
27224;DHT22;14965;50.660;13.226;2023-02-05T08:34:05;-1.50;99.90
27224;DHT22;14965;50.660;13.226;2023-02-05T08:36:31;-1.50;99.90
27224;DHT22;14965;50.660;13.226;2023-02-05T08:38:57;-1.40;99.90
27224;DHT22;14965;50.660;13.226;2023-02-05T08:41:23;-1.30;99.90
27224;DHT22;14965;50.660;13.226;2023-02-05T08:43:50;-1.20;99.90
27224;DHT22;14965;50.660;13.226;2023-02-05T08:46:18;-1.00;99.90
27224;DHT22;14965;50.660;13.226;2023-02-05T08:48:47;-1.00;99.90
27224;DHT22;14965;50.660;13.226;2023-02-05T08:51:15;-0.90;99.90
27224;DHT22;14965;50.660;13.226;2023-02-05T08:53:41;-0.80;99.90
27224;DHT22;14965;50.660;13.226;2023-02-05T08:56:07;-0.70;99.90
27224;DHT22;14965;50.660;13.226;2023-02-05T08:58:33;-0.80;99.90
27224;DHT22;14965;50.660;13.226;2023-02-05T09:01:00;-0.80;99.90
27224;DHT22;14965;50.660;13.226;2023-02-05T09:03:27;-0.70;99.90
27224;DHT22;14965;50.660;13.226;2023-02-05T09:05:53;-0.80;99.90
27224;DHT22;14965;50.660;13.226;2023-02-05T09:08:21;-0.80;99.90
27224;DHT22;14965;50.660;13.226;2023-02-05T09:10:48;-0.70;99.90
27224;DHT22;14965;50.660;13.226;2023-02-05T09:13:13;-0.60;99.90
27224;DHT22;14965;50.660;13.226;2023-02-05T09:15:40;-0.40;99.90
27224;DHT22;14965;50.660;13.226;2023-02-05T09:18:06;-0.30;99.90
27224;DHT22;14965;50.660;13.226;2023-02-05T09:20:32;-0.20;99.90
27224;DHT22;14965;50.660;13.226;2023-02-05T09:22:59;-0.10;99.90
27224;DHT22;14965;50.660;13.226;2023-02-05T09:25:26;0.10;99.90
27224;DHT22;14965;50.660;13.226;2023-02-05T09:27:53;0.10;99.90
27224;DHT22;14965;50.660;13.226;2023-02-05T09:30:21;0.20;99.90
27224;DHT22;14965;50.660;13.226;2023-02-05T09:32:49;0.20;99.90
27224;DHT22;14965;50.660;13.226;2023-02-05T09:35:15;0.20;99.90
27224;DHT22;14965;50.660;13.226;2023-02-05T09:37:43;0.30;99.90
27224;DHT22;14965;50.660;13.226;2023-02-05T09:40:19;0.30;99.90
27224;DHT22;14965;50.660;13.226;2023-02-05T09:43:34;0.40;99.90
27224;DHT22;14965;50.660;13.226;2023-02-05T09:46:42;0.60;99.90
27224;DHT22;14965;50.660;13.226;2023-02-05T09:49:40;0.50;99.90
27224;DHT22;14965;50.660;13.226;2023-02-05T09:52:55;0.50;99.90
27224;DHT22;14965;50.660;13.226;2023-02-05T09:55:28;0.70;99.90
27224;DHT22;14965;50.660;13.226;2023-02-05T09:57:59;0.80;99.90
27224;DHT22;14965;50.660;13.226;2023-02-05T10:00:38;0.90;99.90
27224;DHT22;14965;50.660;13.226;2023-02-05T10:03:19;0.90;99.90
27224;DHT22;14965;50.660;13.226;2023-02-05T10:06:01;1.00;99.90
27224;DHT22;14965;50.660;13.226;2023-02-05T10:08:40;1.00;99.90
27224;DHT22;14965;50.660;13.226;2023-02-05T10:11:24;1.00;99.90
27224;DHT22;14965;50.660;13.226;2023-02-05T10:14:01;1.00;99.90
27224;DHT22;14965;50.660;13.226;2023-02-05T10:16:50;1.10;99.90
27224;DHT22;14965;50.660;13.226;2023-02-05T10:19:56;1.20;99.90
27224;DHT22;14965;50.660;13.226;2023-02-05T10:22:39;1.30;99.90
27224;DHT22;14965;50.660;13.226;2023-02-05T10:25:32;1.30;99.90
27224;DHT22;14965;50.660;13.226;2023-02-05T10:28:08;1.40;99.90
27224;DHT22;14965;50.660;13.226;2023-02-05T10:30:50;1.30;99.90
27224;DHT22;14965;50.660;13.226;2023-02-05T10:33:34;1.10;99.90
27224;DHT22;14965;50.660;13.226;2023-02-05T10:36:07;1.10;99.90
27224;DHT22;14965;50.660;13.226;2023-02-05T10:38:40;1.10;99.90
27224;DHT22;14965;50.660;13.226;2023-02-05T10:41:13;1.10;99.90
27224;DHT22;14965;50.660;13.226;2023-02-05T10:43:52;1.10;99.90
27224;DHT22;14965;50.660;13.226;2023-02-05T10:46:31;1.30;99.90
27224;DHT22;14965;50.660;13.226;2023-02-05T10:49:07;1.40;99.90
27224;DHT22;14965;50.660;13.226;2023-02-05T10:51:40;1.50;99.90
27224;DHT22;14965;50.660;13.226;2023-02-05T10:54:16;1.50;99.90
27224;DHT22;14965;50.660;13.226;2023-02-05T10:56:48;1.60;99.90
27224;DHT22;14965;50.660;13.226;2023-02-05T10:59:20;1.80;99.90
27224;DHT22;14965;50.660;13.226;2023-02-05T11:01:49;1.90;99.90
27224;DHT22;14965;50.660;13.226;2023-02-05T11:04:24;2.00;99.90
27224;DHT22;14965;50.660;13.226;2023-02-05T11:06:57;1.90;99.90
27224;DHT22;14965;50.660;13.226;2023-02-05T11:09:29;2.00;99.90
27224;DHT22;14965;50.660;13.226;2023-02-05T11:11:58;2.00;99.90
27224;DHT22;14965;50.660;13.226;2023-02-05T11:14:31;2.00;99.90
27224;DHT22;14965;50.660;13.226;2023-02-05T11:17:05;1.80;99.90
27224;DHT22;14965;50.660;13.226;2023-02-05T11:19:34;1.60;99.90
27224;DHT22;14965;50.660;13.226;2023-02-05T11:22:02;1.50;99.90
27224;DHT22;14965;50.660;13.226;2023-02-05T11:24:31;1.50;99.90
27224;DHT22;14965;50.660;13.226;2023-02-05T11:27:24;1.60;99.90
27224;DHT22;14965;50.660;13.226;2023-02-05T11:29:52;1.40;99.90
27224;DHT22;14965;50.660;13.226;2023-02-05T11:32:19;1.50;99.90
27224;DHT22;14965;50.660;13.226;2023-02-05T11:34:47;1.70;99.90
27224;DHT22;14965;50.660;13.226;2023-02-05T11:37:15;1.70;99.90
27224;DHT22;14965;50.660;13.226;2023-02-05T11:39:44;1.80;99.90
27224;DHT22;14965;50.660;13.226;2023-02-05T11:42:19;1.90;99.90
27224;DHT22;14965;50.660;13.226;2023-02-05T11:44:50;2.00;99.90
27224;DHT22;14965;50.660;13.226;2023-02-05T11:47:23;2.10;99.90
27224;DHT22;14965;50.660;13.226;2023-02-05T11:49:53;2.30;99.90
27224;DHT22;14965;50.660;13.226;2023-02-05T11:52:25;2.20;99.90
27224;DHT22;14965;50.660;13.226;2023-02-05T11:54:53;2.10;99.90
27224;DHT22;14965;50.660;13.226;2023-02-05T11:57:30;2.20;99.90
27224;DHT22;14965;50.660;13.226;2023-02-05T11:59:59;2.30;99.90
27224;DHT22;14965;50.660;13.226;2023-02-05T12:02:42;2.40;99.90
27224;DHT22;14965;50.660;13.226;2023-02-05T12:05:17;2.40;99.90
27224;DHT22;14965;50.660;13.226;2023-02-05T12:07:49;2.50;99.90
27224;DHT22;14965;50.660;13.226;2023-02-05T12:10:26;2.40;99.90
27224;DHT22;14965;50.660;13.226;2023-02-05T12:13:03;2.20;99.90
27224;DHT22;14965;50.660;13.226;2023-02-05T12:15:42;2.20;99.90
27224;DHT22;14965;50.660;13.226;2023-02-05T12:18:22;2.30;99.90
27224;DHT22;14965;50.660;13.226;2023-02-05T12:21:12;2.30;99.90
27224;DHT22;14965;50.660;13.226;2023-02-05T12:24:07;2.30;99.90
27224;DHT22;14965;50.660;13.226;2023-02-05T12:26:43;2.30;99.90
27224;DHT22;14965;50.660;13.226;2023-02-05T12:29:26;2.40;99.90
27224;DHT22;14965;50.660;13.226;2023-02-05T12:32:14;2.40;99.90
27224;DHT22;14965;50.660;13.226;2023-02-05T12:35:02;2.40;99.90
27224;DHT22;14965;50.660;13.226;2023-02-05T12:37:48;2.40;99.90
27224;DHT22;14965;50.660;13.226;2023-02-05T12:40:31;2.40;99.90
27224;DHT22;14965;50.660;13.226;2023-02-05T12:43:13;2.50;99.90
27224;DHT22;14965;50.660;13.226;2023-02-05T12:45:59;2.40;99.90
27224;DHT22;14965;50.660;13.226;2023-02-05T12:48:47;2.40;99.90
27224;DHT22;14965;50.660;13.226;2023-02-05T12:51:33;2.30;99.90
27224;DHT22;14965;50.660;13.226;2023-02-05T12:54:26;2.20;99.90
27224;DHT22;14965;50.660;13.226;2023-02-05T12:57:04;2.10;99.90
27224;DHT22;14965;50.660;13.226;2023-02-05T12:59:37;2.10;99.90
27224;DHT22;14965;50.660;13.226;2023-02-05T13:02:19;1.90;99.90
27224;DHT22;14965;50.660;13.226;2023-02-05T13:04:54;1.80;99.90
27224;DHT22;14965;50.660;13.226;2023-02-05T13:07:33;1.70;99.90
27224;DHT22;14965;50.660;13.226;2023-02-05T13:10:05;1.60;99.90
27224;DHT22;14965;50.660;13.226;2023-02-05T13:12:43;1.40;99.90
27224;DHT22;14965;50.660;13.226;2023-02-05T13:15:15;1.30;99.90
27224;DHT22;14965;50.660;13.226;2023-02-05T13:17:54;1.30;99.90
27224;DHT22;14965;50.660;13.226;2023-02-05T13:20:25;1.30;99.90
27224;DHT22;14965;50.660;13.226;2023-02-05T13:22:56;1.30;99.90
27224;DHT22;14965;50.660;13.226;2023-02-05T13:25:29;1.30;99.90
27224;DHT22;14965;50.660;13.226;2023-02-05T13:28:09;1.40;99.90
27224;DHT22;14965;50.660;13.226;2023-02-05T13:30:54;1.40;99.90
27224;DHT22;14965;50.660;13.226;2023-02-05T13:33:22;1.40;99.90
27224;DHT22;14965;50.660;13.226;2023-02-05T13:35:56;1.40;99.90
27224;DHT22;14965;50.660;13.226;2023-02-05T13:38:51;1.40;99.90
27224;DHT22;14965;50.660;13.226;2023-02-05T13:41:57;1.30;99.90
27224;DHT22;14965;50.660;13.226;2023-02-05T13:45:06;1.30;99.90
27224;DHT22;14965;50.660;13.226;2023-02-05T13:48:01;1.40;99.90
27224;DHT22;14965;50.660;13.226;2023-02-05T13:50:59;1.30;99.90
27224;DHT22;14965;50.660;13.226;2023-02-05T13:53:53;1.20;99.90
27224;DHT22;14965;50.660;13.226;2023-02-05T13:56:36;1.20;99.90
27224;DHT22;14965;50.660;13.226;2023-02-05T13:59:16;1.10;99.90
27224;DHT22;14965;50.660;13.226;2023-02-05T14:01:50;1.10;99.90
27224;DHT22;14965;50.660;13.226;2023-02-05T14:04:21;1.00;99.90
27224;DHT22;14965;50.660;13.226;2023-02-05T14:06:56;1.00;99.90
27224;DHT22;14965;50.660;13.226;2023-02-05T14:09:32;0.90;99.90
27224;DHT22;14965;50.660;13.226;2023-02-05T14:12:02;0.90;99.90
27224;DHT22;14965;50.660;13.226;2023-02-05T14:14:33;0.80;99.90
27224;DHT22;14965;50.660;13.226;2023-02-05T14:17:01;0.70;99.90
27224;DHT22;14965;50.660;13.226;2023-02-05T14:19:53;0.70;99.90
27224;DHT22;14965;50.660;13.226;2023-02-05T14:22:33;0.70;99.90
27224;DHT22;14965;50.660;13.226;2023-02-05T14:25:01;0.70;99.90
27224;DHT22;14965;50.660;13.226;2023-02-05T14:27:49;0.70;99.90
27224;DHT22;14965;50.660;13.226;2023-02-05T14:30:48;0.60;99.90
27224;DHT22;14965;50.660;13.226;2023-02-05T14:33:32;0.60;99.90
27224;DHT22;14965;50.660;13.226;2023-02-05T14:36:37;0.60;99.90
27224;DHT22;14965;50.660;13.226;2023-02-05T14:39:19;0.60;99.90
27224;DHT22;14965;50.660;13.226;2023-02-05T14:41:52;0.60;99.90
27224;DHT22;14965;50.660;13.226;2023-02-05T14:44:22;0.60;99.90
27224;DHT22;14965;50.660;13.226;2023-02-05T14:46:57;0.60;99.90
27224;DHT22;14965;50.660;13.226;2023-02-05T14:49:28;0.50;99.90
27224;DHT22;14965;50.660;13.226;2023-02-05T14:52:01;0.40;99.90
27224;DHT22;14965;50.660;13.226;2023-02-05T14:54:34;0.40;99.90
27224;DHT22;14965;50.660;13.226;2023-02-05T14:57:13;0.30;99.90
27224;DHT22;14965;50.660;13.226;2023-02-05T14:59:50;0.30;99.90
27224;DHT22;14965;50.660;13.226;2023-02-05T15:05:52;0.10;99.90
27224;DHT22;14965;50.660;13.226;2023-02-05T15:08:46;0.00;99.90
27224;DHT22;14965;50.660;13.226;2023-02-05T15:11:26;-0.10;99.90
27224;DHT22;14965;50.660;13.226;2023-02-05T15:14:36;-0.10;99.90
27224;DHT22;14965;50.660;13.226;2023-02-05T15:17:34;-0.20;99.90
27224;DHT22;14965;50.660;13.226;2023-02-05T15:20:25;-0.20;99.90
27224;DHT22;14965;50.660;13.226;2023-02-05T15:25:54;-0.40;99.90
27224;DHT22;14965;50.660;13.226;2023-02-05T15:28:29;-0.50;99.90
27224;DHT22;14965;50.660;13.226;2023-02-05T15:31:16;-0.50;99.90
27224;DHT22;14965;50.660;13.226;2023-02-05T15:33:51;-0.60;99.90
27224;DHT22;14965;50.660;13.226;2023-02-05T15:36:30;-0.60;99.90
27224;DHT22;14965;50.660;13.226;2023-02-05T15:39:12;-0.70;99.90
27224;DHT22;14965;50.660;13.226;2023-02-05T15:41:44;-0.70;99.90
27224;DHT22;14965;50.660;13.226;2023-02-05T15:44:30;-0.80;99.90
27224;DHT22;14965;50.660;13.226;2023-02-05T15:46:59;-0.90;99.90
27224;DHT22;14965;50.660;13.226;2023-02-05T15:49:31;-0.90;99.90
27224;DHT22;14965;50.660;13.226;2023-02-05T15:52:03;-1.00;99.90
27224;DHT22;14965;50.660;13.226;2023-02-05T15:54:33;-1.10;99.90
27224;DHT22;14965;50.660;13.226;2023-02-05T15:57:02;-1.10;99.90
27224;DHT22;14965;50.660;13.226;2023-02-05T15:59:31;-1.20;99.90
27224;DHT22;14965;50.660;13.226;2023-02-05T16:02:04;-1.30;99.90
27224;DHT22;14965;50.660;13.226;2023-02-05T16:04:35;-1.30;99.90